Weather reports worldwide

Advertisment
Chateau Chinon, France (7270): temperature & dewpoint: 06.11.2019 16:00:00 - 12.11.2019 16:00:00 (CET)Chateau Chinon, France (7270): wind speed & gusts: 06.11.2019 16:00:00 - 12.11.2019 16:00:00 (CET)Chateau Chinon, France (7270): wind direction: 06.11.2019 16:00:00 - 12.11.2019 16:00:00 (CET)Chateau Chinon, France (7270): precipitation: 06.11.2019 16:00:00 - 12.11.2019 16:00:00 (CET)
Date & Time tt [°C] td [°C] ff [km/h] ff [kn] fx [km/h] fx [kn] dd rr [mm]
12.11.2019 16:00:00 - - - - - - - -
12.11.2019 15:00:00 5,1 4,4 4 2 29 16 NW 0,0
12.11.2019 14:00:00 4,7 4,3 4 2 26 14 WNW 0,0
12.11.2019 13:00:00 4,3 4,3 5 3 26 14 W -
12.11.2019 12:00:00 3,4 3,4 4 2 28 15 NW 0,0
12.11.2019 11:00:00 3,2 3,2 8 4 34 18 W 0,0
12.11.2019 10:00:00 2,8 2,7 5 3 37 20 W 0,0
12.11.2019 09:00:00 2,2 2,1 8 4 37 20 W 0,6
12.11.2019 08:00:00 2,0 1,9 9 5 39 21 WSW 0,0
12.11.2019 07:00:00 1,9 1,8 8 4 39 21 WSW -
12.11.2019 06:00:00 1,8 1,7 9 5 34 18 SW 0,0
12.11.2019 05:00:00 1,8 1,8 4 2 22 12 W 0,0
12.11.2019 04:00:00 1,9 1,9 4 2 29 16 W 0,0
12.11.2019 03:00:00 2,2 2,2 4 2 28 15 NNW 0,0
12.11.2019 02:00:00 2,1 2,1 4 2 26 14 NW 0,0
12.11.2019 01:00:00 2,2 2,1 4 2 21 11 N -
12.11.2019 00:00:00 2,5 2,4 4 2 16 9 N 0,0
11.11.2019 23:00:00 2,8 2,7 4 2 18 10 NNW 0,0
11.11.2019 22:00:00 3,3 3,2 4 2 22 12 NNW 0,0
11.11.2019 21:00:00 3,6 3,5 2 1 18 10 WNW 0,0
11.11.2019 20:00:00 4,1 4,0 4 2 16 9 NNW 0,0
11.11.2019 19:00:00 4,2 4,1 2 1 22 12 NW -
11.11.2019 18:00:00 4,5 4,4 4 2 37 20 WNW 0,2
11.11.2019 17:00:00 4,7 4,6 11 6 54 29 WSW 1,0
11.11.2019 16:00:00 4,4 4,1 21 11 44 24 SW 0,4
11.11.2019 15:00:00 4,2 3,6 16 9 42 23 SSW 0,4
11.11.2019 14:00:00 4,7 3,2 9 5 29 16 SW 0,2
11.11.2019 13:00:00 6,3 2,4 9 5 39 21 SW -
11.11.2019 12:00:00 5,1 1,8 16 9 48 26 SW 0,0
11.11.2019 11:00:00 3,3 0,7 21 11 42 23 SSW 0,0
11.11.2019 10:00:00 2,6 0,7 18 10 42 23 SSW 0,0
11.11.2019 09:00:00 2,1 0,8 16 9 37 20 SW 0,0
11.11.2019 08:00:00 2,0 1,7 13 7 31 17 SSW 0,0
11.11.2019 07:00:00 2,1 1,8 4 2 18 10 S -
11.11.2019 06:00:00 1,9 1,6 4 2 15 8 S 0,0
11.11.2019 05:00:00 1,6 1,3 2 1 16 9 W 0,0
11.11.2019 04:00:00 1,3 1,0 5 3 13 7 ESE 0,0
11.11.2019 03:00:00 2,1 2,0 5 3 16 9 SW 0,0
11.11.2019 02:00:00 1,0 0,3 2 1 15 8 W 0,0
11.11.2019 01:00:00 1,6 1,3 9 5 18 10 SSE -
11.11.2019 00:00:00 1,2 0,8 8 4 13 7 SSE 0,0
10.11.2019 23:00:00 1,4 1,0 5 3 9 5 SSE 0,0
10.11.2019 22:00:00 1,8 1,5 5 3 9 5 SSE 0,0
10.11.2019 21:00:00 2,2 1,8 4 2 9 5 SE 0,0
10.11.2019 20:00:00 1,8 1,4 5 3 9 5 SE 0,0
10.11.2019 19:00:00 2,4 1,8 2 1 9 5 SSE -
10.11.2019 18:00:00 3,2 2,3 0 0 5 3 N 0,0
10.11.2019 17:00:00 4,0 3,6 2 1 5 3 ESE 0,0
10.11.2019 16:00:00 5,2 3,8 0 0 16 9 N 0,0
10.11.2019 15:00:00 6,8 5,3 2 1 15 8 NNW 0,0
10.11.2019 14:00:00 5,4 5,3 4 2 13 7 NW 0,0
10.11.2019 13:00:00 4,3 4,2 4 2 16 9 NW -
10.11.2019 12:00:00 4,0 4,0 4 2 22 12 N 0,6
10.11.2019 11:00:00 3,8 3,8 4 2 28 15 NW 0,4
10.11.2019 10:00:00 3,5 3,5 4 2 24 13 W 0,2
10.11.2019 09:00:00 3,2 3,2 8 4 28 15 WSW 0,6
10.11.2019 08:00:00 3,1 3,0 5 3 37 20 W 0,0
10.11.2019 07:00:00 3,2 3,1 8 4 39 21 WSW -
10.11.2019 06:00:00 3,4 3,3 5 3 41 22 W 0,4
10.11.2019 05:00:00 3,5 3,4 8 4 41 22 W 0,0
10.11.2019 04:00:00 3,5 3,4 8 4 35 19 W 0,4
10.11.2019 03:00:00 2,9 2,6 16 9 39 21 SW 0,2
10.11.2019 02:00:00 2,7 2,1 11 6 39 21 SSE 0,2
10.11.2019 01:00:00 2,7 1,4 9 5 35 19 ESE -
10.11.2019 00:00:00 4,2 1,1 9 5 39 21 SE 0,0
09.11.2019 23:00:00 3,8 1,8 9 5 34 18 SE 0,0
09.11.2019 22:00:00 2,9 1,7 8 4 26 14 ESE 0,0
09.11.2019 21:00:00 2,0 1,3 5 3 21 11 SE 0,0
09.11.2019 20:00:00 2,2 1,3 8 4 22 12 SE 0,0
09.11.2019 19:00:00 2,7 1,7 5 3 21 11 SE -
09.11.2019 18:00:00 2,9 1,6 8 4 18 10 SSE 0,0
09.11.2019 17:00:00 4,0 1,7 5 3 18 10 SSE 0,0
09.11.2019 16:00:00 5,2 2,0 8 4 21 11 SW 0,0
09.11.2019 15:00:00 6,7 2,4 4 2 16 9 WSW 0,0
09.11.2019 14:00:00 5,1 3,1 4 2 18 10 W 0,0
09.11.2019 13:00:00 4,7 3,0 4 2 15 8 W -
09.11.2019 12:00:00 4,3 3,1 4 2 18 10 W 0,0
09.11.2019 11:00:00 3,5 3,1 4 2 15 8 WNW 0,0
09.11.2019 10:00:00 3,5 3,2 2 1 13 7 WNW 0,0
09.11.2019 09:00:00 2,7 2,4 2 1 8 4 W 0,0
09.11.2019 08:00:00 2,5 1,9 0 0 8 4 N 0,0
09.11.2019 07:00:00 3,2 2,9 2 1 9 5 WNW -
09.11.2019 06:00:00 3,1 2,7 2 1 9 5 W 0,0
09.11.2019 05:00:00 3,3 2,7 4 2 13 7 ENE 0,0
09.11.2019 04:00:00 3,5 2,9 2 1 11 6 ENE 0,0
09.11.2019 03:00:00 3,1 2,5 4 2 8 4 NNW 0,0
09.11.2019 02:00:00 3,0 2,3 0 0 9 5 N 0,0
09.11.2019 01:00:00 3,5 2,9 4 2 15 8 E -
09.11.2019 00:00:00 3,9 3,0 4 2 8 4 ENE 0,0
08.11.2019 23:00:00 3,7 3,0 4 2 8 4 E 0,0
08.11.2019 22:00:00 3,3 2,9 4 2 11 6 E 0,0
08.11.2019 21:00:00 3,4 2,8 4 2 11 6 E 0,0
08.11.2019 20:00:00 3,2 2,5 4 2 13 7 E 0,0
08.11.2019 19:00:00 3,5 2,3 4 2 13 7 NNE -
08.11.2019 18:00:00 3,8 2,3 0 0 8 4 N 0,0
08.11.2019 17:00:00 5,4 3,1 0 0 5 3 N 0,0
08.11.2019 16:00:00 6,7 3,5 0 0 9 5 N 0,0
08.11.2019 15:00:00 7,5 3,7 2 1 13 7 E 0,0
08.11.2019 14:00:00 9,0 3,6 4 2 15 8 SSE 0,0
08.11.2019 13:00:00 8,6 4,0 4 2 13 7 SE -
08.11.2019 12:00:00 5,8 3,1 4 2 13 7 ESE 0,0
08.11.2019 11:00:00 5,7 3,5 4 2 16 9 E 0,0
08.11.2019 10:00:00 5,5 2,8 4 2 22 12 E 0,0
08.11.2019 09:00:00 3,9 2,1 8 4 18 10 SE 0,0
08.11.2019 08:00:00 2,8 1,2 5 3 18 10 SSE 0,0
08.11.2019 07:00:00 2,5 1,0 4 2 18 10 SSE -
08.11.2019 06:00:00 2,9 1,1 8 4 21 11 SE 0,0
08.11.2019 05:00:00 4,0 1,4 5 3 26 14 S 0,0
08.11.2019 04:00:00 4,1 1,3 15 8 34 18 SSW 0,0
08.11.2019 03:00:00 4,0 1,5 11 6 31 17 SSW 0,0
08.11.2019 02:00:00 3,8 1,7 15 8 35 19 SSW 0,0
08.11.2019 01:00:00 3,8 2,0 9 5 34 18 SSW -
08.11.2019 00:00:00 3,4 1,9 15 8 35 19 SW 0,0
07.11.2019 23:00:00 3,5 2,0 9 5 34 18 SW 0,0
07.11.2019 22:00:00 3,6 2,1 11 6 34 18 SW 0,0
07.11.2019 21:00:00 3,6 2,1 9 5 37 20 WSW 0,0
07.11.2019 20:00:00 4,2 2,2 13 7 35 19 SW 0,0
07.11.2019 19:00:00 5,1 2,9 13 7 39 21 SSW -
07.11.2019 18:00:00 5,3 2,8 5 3 22 12 S 0,0
07.11.2019 17:00:00 5,6 2,1 9 5 29 16 SSW 0,0
07.11.2019 16:00:00 7,2 2,5 8 4 24 13 SSW 0,0
07.11.2019 15:00:00 7,0 2,9 4 2 31 17 WNW 0,0
07.11.2019 14:00:00 6,7 3,1 5 3 29 16 W 0,0
07.11.2019 13:00:00 6,4 4,2 4 2 34 18 WNW -
07.11.2019 12:00:00 5,8 5,1 4 2 29 16 NNW 0,0
07.11.2019 11:00:00 5,5 5,1 5 3 29 16 NW 0,0
07.11.2019 10:00:00 5,7 5,6 8 4 42 23 NW 0,0
07.11.2019 09:00:00 6,3 6,2 9 5 61 33 NNW 2,0
07.11.2019 08:00:00 6,5 6,2 22 12 70 38 SW 0,4
07.11.2019 07:00:00 6,2 5,6 24 13 74 40 SSW -
07.11.2019 06:00:00 6,0 5,4 13 7 44 24 S 3,0
07.11.2019 05:00:00 5,9 5,2 11 6 41 22 S 2,0
07.11.2019 04:00:00 6,3 4,8 9 5 35 19 S 0,0
07.11.2019 03:00:00 6,0 5,0 11 6 39 21 SSW 0,0
07.11.2019 02:00:00 5,9 5,3 9 5 28 15 S 0,0
07.11.2019 01:00:00 5,8 5,4 15 8 37 20 SSW -
07.11.2019 00:00:00 5,7 5,6 13 7 34 18 SW 0,0
06.11.2019 23:00:00 6,2 6,1 11 6 34 18 SW 0,0
06.11.2019 22:00:00 6,0 5,9 9 5 37 20 SW 0,8
06.11.2019 21:00:00 6,8 6,7 15 8 37 20 SSW 0,8
06.11.2019 20:00:00 6,5 6,5 9 5 28 15 SW 0,0
06.11.2019 19:00:00 6,4 6,4 8 4 22 12 SW -
06.11.2019 18:00:00 6,8 6,8 5 3 22 12 WSW 0,2
06.11.2019 17:00:00 6,7 6,7 2 1 26 14 NNE 3,0
06.11.2019 16:00:00 7,0 7,0 2 1 11 6 NW 0,0

tt = temperature
td = dewpoint
ff = wind speed
fx = gusts
dd = wind direction
rr = precipitation

Next stations